Time;durP1;ratioP1;P1;durP2;ratioP2;P2;SDS_P1;SDS_P2;PMS_P1;PMS_P2;Temp;Humidity;BMP_temperature;BMP_pressure;BME280_temperature;BME280_humidity;BME280_pressure;Samples;Min_cycle;Max_cycle;Signal;HPM_P1;HPM_P2
2022/08/26 00:01:10;;;;;;;55.80;49.95;;;20.30;99.90;;;;;;5117932;27;20035;-67
2022/08/26 00:03:35;;;;;;;56.35;50.65;;;20.20;99.90;;;;;;5113410;27;20063;-67
2022/08/26 00:06:01;;;;;;;57.47;50.00;;;20.20;99.90;;;;;;5115410;27;20032;-66
2022/08/26 00:08:26;;;;;;;56.08;49.50;;;20.20;99.90;;;;;;5110964;27;20047;-68
2022/08/26 00:10:52;;;;;;;52.90;47.22;;;20.20;99.90;;;;;;5118260;27;20082;-70
2022/08/26 00:13:18;;;;;;;56.35;50.47;;;20.20;99.90;;;;;;5108714;28;20398;-66
2022/08/26 00:15:45;;;;;;;56.80;47.95;;;20.10;99.90;;;;;;5122282;27;20046;-69
2022/08/26 00:18:12;;;;;;;54.70;48.72;;;20.20;99.90;;;;;;5121190;27;20039;-69
2022/08/26 00:20:38;;;;;;;54.40;48.00;;;20.10;99.90;;;;;;5130773;27;20116;-70
2022/08/26 00:23:05;;;;;;;53.90;47.08;;;20.10;99.90;;;;;;5113663;27;20197;-67
2022/08/26 00:25:31;;;;;;;53.10;47.42;;;20.10;99.90;;;;;;5111841;27;20134;-68
2022/08/26 00:27:57;;;;;;;58.28;48.03;;;20.10;99.90;;;;;;5109257;28;20027;-65
2022/08/26 00:30:25;;;;;;;54.75;47.58;;;20.10;99.90;;;;;;5109066;28;20031;-70
2022/08/26 00:32:51;;;;;;;49.40;44.05;;;20.10;99.90;;;;;;5108482;28;20044;-69
2022/08/26 00:35:17;;;;;;;53.40;45.72;;;20.10;99.90;;;;;;5110893;28;20040;-71
2022/08/26 00:37:43;;;;;;;49.63;44.33;;;20.10;99.90;;;;;;5115349;27;20040;-68
2022/08/26 00:40:15;;;;;;;51.50;44.78;;;20.10;99.90;;;;;;5119882;27;20160;-70
2022/08/26 00:42:41;;;;;;;50.13;44.15;;;20.10;99.90;;;;;;5117620;27;20482;-70
2022/08/26 00:45:07;;;;;;;50.53;42.15;;;20.10;99.90;;;;;;5116507;27;20050;-67
2022/08/26 00:47:37;;;;;;;52.75;43.05;;;20.10;99.90;;;;;;5125597;27;20059;-69
2022/08/26 00:50:09;;;;;;;49.53;41.95;;;20.10;99.90;;;;;;5130171;27;20054;-70
2022/08/26 00:52:35;;;;;;;55.38;41.33;;;20.10;99.90;;;;;;5115438;27;20043;-67
2022/08/26 00:55:04;;;;;;;47.58;38.63;;;20.10;99.90;;;;;;5119313;28;20028;-67
2022/08/26 00:57:31;;;;;;;45.88;37.50;;;20.10;99.90;;;;;;5107934;28;20122;-68
2022/08/26 01:00:00;;;;;;;43.03;36.83;;;20.10;99.90;;;;;;5113159;28;20032;-70
2022/08/26 01:02:26;;;;;;;45.00;35.78;;;20.10;99.90;;;;;;5110497;28;20115;-66
2022/08/26 01:04:58;;;;;;;45.65;37.08;;;20.10;99.90;;;;;;5122250;28;20027;-72
2022/08/26 01:07:26;;;;;;;46.42;36.53;;;20.10;99.90;;;;;;5107717;28;20043;-71
2022/08/26 01:09:52;;;;;;;47.28;35.92;;;20.00;99.90;;;;;;5129781;28;20039;-68
2022/08/26 01:12:18;;;;;;;39.78;32.78;;;20.00;99.90;;;;;;5110638;28;20042;-70
2022/08/26 01:14:44;;;;;;;45.88;33.00;;;20.00;99.90;;;;;;5124337;28;20027;-70
2022/08/26 01:17:10;;;;;;;41.35;32.97;;;20.00;99.90;;;;;;5122144;28;20035;-69
2022/08/26 01:19:56;;;;;;;38.28;29.73;;;20.00;99.90;;;;;;5110558;28;20044;-67
2022/08/26 01:22:27;;;;;;;40.50;28.83;;;20.00;99.90;;;;;;5114357;28;20493;-69
2022/08/26 01:24:53;;;;;;;39.67;28.67;;;20.00;99.90;;;;;;5116535;28;20043;-67
2022/08/26 01:27:20;;;;;;;36.10;27.77;;;20.00;99.90;;;;;;5122269;28;20043;-69
2022/08/26 01:29:48;;;;;;;33.35;28.02;;;20.00;99.90;;;;;;5111678;28;20116;-69
2022/08/26 01:32:18;;;;;;;39.45;28.00;;;20.00;99.90;;;;;;5111503;28;20035;-70
2022/08/26 01:34:46;;;;;;;37.22;26.63;;;20.00;99.90;;;;;;5108338;28;20039;-69
2022/08/26 01:37:21;;;;;;;35.15;26.33;;;20.00;99.90;;;;;;5124933;28;20452;-68
2022/08/26 01:39:51;;;;;;;32.47;24.77;;;20.00;99.90;;;;;;5130070;28;20504;-70
2022/08/26 01:42:19;;;;;;;30.17;23.73;;;20.00;99.90;;;;;;5116391;28;20051;-69
2022/08/26 01:44:56;;;;;;;30.92;22.05;;;20.00;99.90;;;;;;5108361;28;20136;-67
2022/08/26 01:47:25;;;;;;;33.05;22.70;;;20.00;99.90;;;;;;5106546;28;20040;-67
2022/08/26 01:49:53;;;;;;;28.10;22.20;;;20.00;99.90;;;;;;5110469;28;20053;-70
2022/08/26 01:52:24;;;;;;;30.85;21.25;;;20.00;99.90;;;;;;5126474;27;20478;-69
2022/08/26 01:54:52;;;;;;;30.27;21.58;;;20.00;99.90;;;;;;5119787;27;20067;-69
2022/08/26 01:57:19;;;;;;;26.98;19.65;;;20.00;99.90;;;;;;5118199;27;20088;-66
2022/08/26 01:59:48;;;;;;;27.05;19.10;;;20.00;99.90;;;;;;5113662;27;20042;-68
2022/08/26 02:02:14;;;;;;;24.75;17.77;;;20.00;99.90;;;;;;5116901;27;20051;-69
2022/08/26 02:04:49;;;;;;;27.10;17.95;;;20.00;99.90;;;;;;5111134;28;20032;-66
2022/08/26 02:07:17;;;;;;;22.13;15.80;;;20.00;99.90;;;;;;5124010;27;20051;-72
2022/08/26 02:09:43;;;;;;;22.95;15.88;;;19.90;99.90;;;;;;5128753;27;20039;-68
2022/08/26 02:12:11;;;;;;;24.13;15.07;;;19.90;99.90;;;;;;5125361;27;20129;-66
2022/08/26 02:14:40;;;;;;;21.45;14.48;;;20.00;99.90;;;;;;5101728;28;20051;-66
2022/08/26 02:17:08;;;;;;;22.42;14.65;;;19.90;99.90;;;;;;5112084;27;20494;-67
2022/08/26 02:19:38;;;;;;;20.38;13.45;;;20.00;99.90;;;;;;5108418;27;20046;-67
2022/08/26 02:22:07;;;;;;;21.85;13.98;;;19.90;99.90;;;;;;5113230;27;20036;-68
2022/08/26 02:25:06;;;;;;;19.45;13.73;;;19.90;99.90;;;;;;5125363;27;20027;-68
2022/08/26 02:27:34;;;;;;;21.25;13.13;;;19.90;99.90;;;;;;5107948;28;20039;-67
2022/08/26 02:30:11;;;;;;;22.98;13.85;;;19.90;99.90;;;;;;5127997;27;20050;-68
2022/08/26 02:32:37;;;;;;;22.63;12.93;;;19.90;99.90;;;;;;5118420;27;20047;-70
2022/08/26 02:35:03;;;;;;;21.83;13.20;;;19.90;99.90;;;;;;5126171;27;20046;-71
2022/08/26 02:37:31;;;;;;;21.88;12.70;;;19.90;99.90;;;;;;5108970;28;20051;-67
2022/08/26 02:39:57;;;;;;;22.85;14.55;;;19.90;99.90;;;;;;5117376;27;20445;-68
2022/08/26 02:42:22;;;;;;;26.25;12.30;;;19.90;99.90;;;;;;5119945;27;20125;-67
2022/08/26 02:44:48;;;;;;;18.80;12.25;;;19.90;99.90;;;;;;5113219;27;20043;-70
2022/08/26 02:47:15;;;;;;;18.73;12.50;;;19.90;99.90;;;;;;5115001;27;20075;-71
2022/08/26 02:49:44;;;;;;;20.65;12.35;;;19.90;99.90;;;;;;5126542;27;20056;-68
2022/08/26 02:52:10;;;;;;;22.25;13.27;;;19.90;99.90;;;;;;5120407;27;20035;-68
2022/08/26 02:54:36;;;;;;;22.55;12.63;;;19.80;99.90;;;;;;5119978;27;20046;-66
2022/08/26 02:57:03;;;;;;;22.00;13.02;;;19.80;99.90;;;;;;5122203;27;20513;-70
2022/08/26 02:59:30;;;;;;;22.98;12.10;;;19.80;99.90;;;;;;5122339;27;20043;-67
2022/08/26 03:01:56;;;;;;;19.60;12.52;;;19.80;99.90;;;;;;5117537;27;20046;-69
2022/08/26 03:04:22;;;;;;;19.80;12.73;;;19.80;99.90;;;;;;5112631;27;20047;-69
2022/08/26 03:06:49;;;;;;;17.58;11.65;;;19.80;99.90;;;;;;5126307;27;20043;-68
2022/08/26 03:09:17;;;;;;;19.00;11.90;;;19.70;99.90;;;;;;5109761;28;20044;-68
2022/08/26 03:11:43;;;;;;;20.33;12.20;;;19.70;99.90;;;;;;5125526;27;20027;-68
2022/08/26 03:14:08;;;;;;;17.25;11.35;;;19.70;99.90;;;;;;5119594;27;20119;-70
2022/08/26 03:16:35;;;;;;;19.02;11.95;;;19.70;99.90;;;;;;5110158;28;20051;-71
2022/08/26 03:19:03;;;;;;;20.58;11.52;;;19.60;99.90;;;;;;5111375;27;20043;-67
2022/08/26 03:21:29;;;;;;;18.35;10.40;;;19.60;99.90;;;;;;5111155;28;20495;-68
2022/08/26 03:23:55;;;;;;;16.90;10.70;;;19.60;99.90;;;;;;5110609;27;20031;-66
2022/08/26 03:26:21;;;;;;;15.95;10.45;;;19.70;99.90;;;;;;5113032;27;20064;-69
2022/08/26 03:31:30;;;;;;;17.58;10.07;;;19.70;99.90;;;;;;5110072;28;20047;-69
2022/08/26 03:33:56;;;;;;;18.20;9.82;;;19.70;99.90;;;;;;5110262;27;20101;-68
2022/08/26 03:36:22;;;;;;;20.05;9.73;;;19.70;99.90;;;;;;5118778;27;20040;-67
2022/08/26 03:38:48;;;;;;;21.10;10.02;;;19.70;99.90;;;;;;5124604;27;20035;-68
2022/08/26 03:41:14;;;;;;;14.55;8.93;;;19.70;99.90;;;;;;5122298;27;20083;-67
2022/08/26 03:43:39;;;;;;;16.15;9.68;;;19.70;99.90;;;;;;5123166;27;20047;-66
2022/08/26 03:46:07;;;;;;;17.58;9.55;;;19.70;99.90;;;;;;5094388;28;20062;-70
2022/08/26 03:48:33;;;;;;;16.65;7.88;;;19.70;99.90;;;;;;5122001;27;20497;-68
2022/08/26 03:51:00;;;;;;;18.83;8.13;;;19.70;99.90;;;;;;5110622;27;20393;-69
2022/08/26 03:53:25;;;;;;;18.58;7.63;;;19.70;99.90;;;;;;5110145;28;20047;-69
2022/08/26 03:55:51;;;;;;;14.52;7.05;;;19.70;99.90;;;;;;5123410;27;20042;-70
2022/08/26 03:58:17;;;;;;;19.52;6.55;;;19.70;99.90;;;;;;5115979;27;20039;-67
2022/08/26 04:00:43;;;;;;;16.65;6.30;;;19.70;99.90;;;;;;5116092;27;20067;-70
2022/08/26 04:03:10;;;;;;;16.15;6.78;;;19.60;99.90;;;;;;5109093;27;20074;-67
2022/08/26 04:05:36;;;;;;;15.25;6.60;;;19.70;99.90;;;;;;5109891;27;20054;-72
2022/08/26 04:08:03;;;;;;;11.23;6.10;;;19.60;99.90;;;;;;5121606;27;20035;-67
2022/08/26 04:10:29;;;;;;;10.98;5.70;;;19.60;99.90;;;;;;5118564;27;20050;-66
2022/08/26 04:12:56;;;;;;;14.43;6.13;;;19.60;99.90;;;;;;5096864;27;20075;-68
2022/08/26 04:15:22;;;;;;;12.23;5.72;;;19.60;99.90;;;;;;5110142;27;20128;-69
2022/08/26 04:17:48;;;;;;;11.25;5.55;;;19.60;99.90;;;;;;5116282;27;20497;-66
2022/08/26 04:20:16;;;;;;;17.38;6.20;;;19.60;99.90;;;;;;5125416;27;20114;-68
2022/08/26 04:22:43;;;;;;;11.88;5.70;;;19.60;99.90;;;;;;5113535;27;20057;-67
2022/08/26 04:25:10;;;;;;;14.15;5.40;;;19.60;99.90;;;;;;5120264;27;20035;-68
2022/08/26 04:27:35;;;;;;;14.50;5.68;;;19.60;99.90;;;;;;5120603;27;20023;-66
2022/08/26 04:30:02;;;;;;;13.68;4.68;;;19.60;99.90;;;;;;5118792;27;20523;-66
2022/08/26 04:32:28;;;;;;;14.43;4.90;;;19.60;99.90;;;;;;5115143;27;20039;-70
2022/08/26 04:34:53;;;;;;;14.05;5.13;;;19.60;99.90;;;;;;5108859;28;20685;-69
2022/08/26 04:37:19;;;;;;;15.57;5.72;;;19.60;99.90;;;;;;5118192;27;20046;-68
2022/08/26 04:39:45;;;;;;;11.07;5.30;;;19.60;99.90;;;;;;5117564;27;20067;-67
2022/08/26 04:42:11;;;;;;;12.93;5.05;;;19.60;99.90;;;;;;5112714;27;20510;-67
2022/08/26 04:44:37;;;;;;;11.75;5.07;;;19.60;99.90;;;;;;5122678;27;20078;-68
2022/08/26 04:47:03;;;;;;;8.18;4.65;;;19.60;99.90;;;;;;5118394;27;20082;-69
2022/08/26 04:49:29;;;;;;;12.75;5.22;;;19.60;99.90;;;;;;5114601;27;20042;-67
2022/08/26 04:51:54;;;;;;;15.02;5.35;;;19.60;99.90;;;;;;5118399;27;20405;-68
2022/08/26 04:54:20;;;;;;;12.75;5.28;;;19.60;99.90;;;;;;5107639;28;20068;-66
2022/08/26 04:56:48;;;;;;;16.23;5.75;;;19.60;99.90;;;;;;5122639;28;20081;-67
2022/08/26 04:59:16;;;;;;;14.00;6.13;;;19.70;99.90;;;;;;5111022;28;20081;-70
2022/08/26 05:01:50;;;;;;;14.30;5.60;;;19.60;99.90;;;;;;5109723;28;21527;-69
2022/08/26 05:04:17;;;;;;;12.73;5.07;;;19.70;99.90;;;;;;5107536;28;20111;-69
2022/08/26 05:06:43;;;;;;;13.93;5.32;;;19.70;99.90;;;;;;5114707;28;20047;-70
2022/08/26 05:09:09;;;;;;;15.40;5.57;;;19.70;99.90;;;;;;5125590;28;20512;-70
2022/08/26 05:11:36;;;;;;;10.80;5.07;;;19.70;99.90;;;;;;5116914;28;20051;-67
2022/08/26 05:14:01;;;;;;;14.32;5.80;;;19.70;99.90;;;;;;5122230;27;21917;-67
2022/08/26 05:16:28;;;;;;;17.73;5.18;;;19.80;99.90;;;;;;5117054;28;20046;-69
2022/08/26 05:18:53;;;;;;;14.15;5.05;;;19.80;99.90;;;;;;5099420;28;20043;-71
2022/08/26 05:21:25;;;;;;;13.23;5.70;;;19.90;99.90;;;;;;5126831;28;20065;-65
2022/08/26 05:23:53;;;;;;;16.15;5.63;;;19.90;99.90;;;;;;5129894;27;20039;-67
2022/08/26 05:26:20;;;;;;;13.27;5.40;;;19.90;99.90;;;;;;5117905;27;20043;-67
2022/08/26 05:28:46;;;;;;;12.88;5.55;;;20.00;99.90;;;;;;5114108;27;20454;-66
2022/08/26 05:31:14;;;;;;;18.08;5.50;;;20.00;99.90;;;;;;5120228;27;20035;-69
2022/08/26 05:33:39;;;;;;;13.07;5.57;;;20.00;99.90;;;;;;5122903;27;20377;-71
2022/08/26 05:36:11;;;;;;;18.00;6.15;;;20.10;99.90;;;;;;5101407;27;20043;-67
2022/08/26 05:38:37;;;;;;;15.37;5.37;;;20.10;99.90;;;;;;5123829;27;20051;-68
2022/08/26 05:41:02;;;;;;;14.45;4.75;;;20.20;99.90;;;;;;5116433;27;20293;-72
2022/08/26 05:43:29;;;;;;;14.40;5.10;;;20.10;99.90;;;;;;5131891;27;20469;-70
2022/08/26 05:45:56;;;;;;;14.75;5.00;;;20.10;99.90;;;;;;5115272;27;20516;-66
2022/08/26 05:48:21;;;;;;;15.98;5.03;;;20.10;99.90;;;;;;5118261;27;20114;-67
2022/08/26 05:50:49;;;;;;;15.02;4.70;;;20.10;99.90;;;;;;5103441;27;20155;-66
2022/08/26 05:53:18;;;;;;;13.10;4.60;;;20.10;99.90;;;;;;5122557;27;20043;-70
2022/08/26 05:55:49;;;;;;;12.40;4.65;;;20.10;99.90;;;;;;5113945;27;20042;-65
2022/08/26 05:58:18;;;;;;;13.52;4.55;;;20.20;99.90;;;;;;5111314;27;20055;-68
2022/08/26 06:00:45;;;;;;;18.90;4.43;;;20.10;99.90;;;;;;5120879;27;20046;-69
2022/08/26 06:03:11;;;;;;;15.20;4.47;;;20.10;99.90;;;;;;5121294;27;20490;-68
2022/08/26 06:05:38;;;;;;;9.18;3.30;;;20.10;99.90;;;;;;5119775;27;20100;-70
2022/08/26 06:08:13;;;;;;;15.43;4.15;;;20.10;99.90;;;;;;5115550;27;20031;-69
2022/08/26 06:10:52;;;;;;;11.02;3.55;;;20.10;99.90;;;;;;5124200;27;20111;-68
2022/08/26 06:13:20;;;;;;;12.02;3.75;;;20.10;99.90;;;;;;5117462;27;20467;-68
2022/08/26 06:15:48;;;;;;;9.48;3.95;;;20.10;99.90;;;;;;5123583;27;20546;-70
2022/08/26 06:18:17;;;;;;;15.75;3.60;;;20.10;99.90;;;;;;5129489;27;20054;-69
2022/08/26 06:20:44;;;;;;;15.30;3.28;;;20.10;99.90;;;;;;5120701;27;20027;-67
2022/08/26 06:25:56;;;;;;;11.10;3.17;;;20.10;99.90;;;;;;5113829;27;20518;-68
2022/08/26 06:28:23;;;;;;;12.85;3.50;;;20.10;99.90;;;;;;5114202;28;20110;-67
2022/08/26 06:30:49;;;;;;;13.98;3.67;;;20.10;99.90;;;;;;5126684;27;20034;-68
2022/08/26 06:33:15;;;;;;;14.38;3.72;;;20.10;99.90;;;;;;5130471;27;20051;-66
2022/08/26 06:35:41;;;;;;;14.38;3.17;;;20.10;99.90;;;;;;5127008;27;20066;-71
2022/08/26 06:38:08;;;;;;;14.75;3.17;;;20.10;99.90;;;;;;5126174;27;20054;-71
2022/08/26 06:40:44;;;;;;;14.85;3.40;;;20.10;99.90;;;;;;5123976;27;20078;-69
2022/08/26 06:43:10;;;;;;;15.77;3.72;;;20.10;99.90;;;;;;5121839;27;20046;-70
2022/08/26 06:45:37;;;;;;;11.52;3.20;;;20.10;99.90;;;;;;5124567;27;20058;-69
2022/08/26 06:48:05;;;;;;;15.10;3.35;;;20.10;99.90;;;;;;5121025;27;20501;-69
2022/08/26 06:50:31;;;;;;;11.23;3.53;;;20.10;99.90;;;;;;5118861;27;20080;-71
2022/08/26 06:52:57;;;;;;;14.05;3.65;;;20.10;99.90;;;;;;5115394;27;20124;-67
2022/08/26 06:55:22;;;;;;;14.95;3.50;;;20.10;99.90;;;;;;5123480;27;20062;-66
2022/08/26 06:57:49;;;;;;;9.32;2.95;;;20.10;99.90;;;;;;5124853;27;20047;-67
2022/08/26 07:00:15;;;;;;;11.38;3.10;;;20.00;99.90;;;;;;5128846;27;20125;-67
2022/08/26 07:02:41;;;;;;;10.68;3.42;;;20.00;99.90;;;;;;5132274;27;20112;-67
2022/08/26 07:05:07;;;;;;;13.88;3.58;;;20.00;99.90;;;;;;5129574;27;20035;-70
2022/08/26 07:07:33;;;;;;;12.63;3.00;;;20.00;99.90;;;;;;5108541;28;20480;-68
2022/08/26 07:09:59;;;;;;;12.52;3.25;;;20.00;99.90;;;;;;5100035;28;20127;-69
2022/08/26 07:12:25;;;;;;;10.00;3.08;;;20.00;99.90;;;;;;5124489;27;20073;-68
2022/08/26 07:14:51;;;;;;;11.70;2.88;;;20.00;99.90;;;;;;5119343;27;20036;-70
2022/08/26 07:17:18;;;;;;;11.40;2.97;;;20.00;99.90;;;;;;5121326;27;20054;-68
2022/08/26 07:19:44;;;;;;;11.90;3.13;;;20.00;99.90;;;;;;5125630;27;20047;-70
2022/08/26 07:22:10;;;;;;;12.85;2.70;;;20.00;99.90;;;;;;5115699;27;20039;-72
2022/08/26 07:24:40;;;;;;;12.38;2.88;;;20.00;99.90;;;;;;5126812;27;20045;-68
2022/08/26 07:27:10;;;;;;;11.15;2.60;;;20.10;99.90;;;;;;5125899;27;20071;-71
2022/08/26 07:29:38;;;;;;;13.63;3.08;;;20.10;99.90;;;;;;5122563;27;20497;-64
2022/08/26 07:32:05;;;;;;;11.50;3.28;;;20.10;99.90;;;;;;5120950;27;20028;-65
2022/08/26 07:34:35;;;;;;;9.95;3.08;;;20.10;99.90;;;;;;5117707;27;20493;-67
2022/08/26 07:37:01;;;;;;;11.48;2.72;;;20.10;99.90;;;;;;5131427;27;20415;-64
2022/08/26 07:39:27;;;;;;;14.57;2.95;;;20.10;99.90;;;;;;5118466;27;20047;-66
2022/08/26 07:41:53;;;;;;;11.15;2.63;;;20.10;99.90;;;;;;5133226;27;20055;-64
2022/08/26 07:44:19;;;;;;;13.23;3.10;;;20.10;99.90;;;;;;5123637;27;20118;-65
2022/08/26 07:46:45;;;;;;;10.05;2.35;;;20.10;99.90;;;;;;5127900;27;20039;-65
2022/08/26 07:49:11;;;;;;;10.38;2.42;;;20.10;99.90;;;;;;5127808;27;20087;-65
2022/08/26 07:51:37;;;;;;;11.55;2.20;;;20.10;99.90;;;;;;5124715;27;20043;-66
2022/08/26 07:54:04;;;;;;;9.43;2.30;;;20.10;99.90;;;;;;5117377;27;20035;-65
2022/08/26 07:56:30;;;;;;;11.20;2.60;;;20.10;99.90;;;;;;5129979;27;20503;-66
2022/08/26 07:58:55;;;;;;;7.57;2.13;;;20.10;99.90;;;;;;5117349;27;20036;-66
2022/08/26 08:01:24;;;;;;;7.05;1.80;;;20.10;99.90;;;;;;5110402;28;20039;-65
2022/08/26 08:03:50;;;;;;;7.10;2.10;;;20.10;99.90;;;;;;5125192;27;20039;-65
2022/08/26 08:06:18;;;;;;;9.02;1.90;;;20.10;99.90;;;;;;5129957;27;20039;-65
2022/08/26 08:08:44;;;;;;;11.48;2.30;;;20.10;99.90;;;;;;5130090;27;20114;-65
2022/08/26 08:11:10;;;;;;;11.85;2.20;;;20.10;99.90;;;;;;5125175;27;20058;-64
2022/08/26 08:13:37;;;;;;;10.15;2.50;;;20.10;99.90;;;;;;5118123;27;20112;-65
2022/08/26 08:16:03;;;;;;;11.55;2.10;;;20.20;99.90;;;;;;5101033;27;20043;-66
2022/08/26 08:18:29;;;;;;;8.52;1.63;;;20.20;99.90;;;;;;5113819;27;20357;-65
2022/08/26 08:20:55;;;;;;;9.27;2.47;;;20.30;99.90;;;;;;5131204;27;20031;-66
2022/08/26 08:23:21;;;;;;;12.00;1.83;;;20.40;99.90;;;;;;5116635;27;20116;-66
2022/08/26 08:25:47;;;;;;;9.73;1.83;;;20.40;99.90;;;;;;5122528;27;20476;-67
2022/08/26 08:28:14;;;;;;;7.72;2.08;;;20.40;99.90;;;;;;5120952;27;20031;-65
2022/08/26 08:30:40;;;;;;;8.07;2.03;;;20.50;99.90;;;;;;5121913;27;20122;-65
2022/08/26 08:33:07;;;;;;;13.52;1.92;;;20.50;99.90;;;;;;5123746;27;20031;-64
2022/08/26 08:35:33;;;;;;;10.50;2.25;;;20.50;99.90;;;;;;5119557;27;20173;-65
2022/08/26 08:37:59;;;;;;;13.85;1.90;;;20.50;99.90;;;;;;5110525;28;20039;-65
2022/08/26 08:40:26;;;;;;;11.43;1.77;;;20.50;99.90;;;;;;5113095;27;20054;-67
2022/08/26 08:42:55;;;;;;;10.60;2.28;;;20.50;99.90;;;;;;5128653;27;20549;-66
2022/08/26 08:45:33;;;;;;;7.50;1.70;;;20.60;99.90;;;;;;5109987;28;20439;-66
2022/08/26 08:48:04;;;;;;;10.52;1.77;;;20.60;99.90;;;;;;5112987;28;20042;-66
2022/08/26 08:50:32;;;;;;;12.30;2.03;;;20.60;99.90;;;;;;5113758;28;20044;-65
2022/08/26 08:53:09;;;;;;;8.93;1.95;;;20.70;99.90;;;;;;5130620;27;20405;-65
2022/08/26 08:55:50;;;;;;;11.48;2.10;;;20.70;99.90;;;;;;5113398;27;20122;-66
2022/08/26 08:58:19;;;;;;;8.57;1.70;;;20.60;99.90;;;;;;5111331;28;20061;-66
2022/08/26 09:00:58;;;;;;;12.82;2.35;;;20.60;99.90;;;;;;5125819;27;20043;-65
2022/08/26 09:03:45;;;;;;;7.75;1.88;;;20.60;99.90;;;;;;5130798;28;20509;-64
2022/08/26 09:06:17;;;;;;;11.73;1.70;;;20.70;99.90;;;;;;5107268;28;20558;-66
2022/08/26 09:08:48;;;;;;;9.10;1.77;;;20.70;99.90;;;;;;5120201;27;20050;-66
2022/08/26 09:11:15;;;;;;;12.43;1.70;;;20.70;99.90;;;;;;5130418;28;20039;-64
2022/08/26 09:13:49;;;;;;;8.27;1.33;;;20.80;99.90;;;;;;5120435;27;20043;-66
2022/08/26 09:16:42;;;;;;;7.78;1.73;;;20.90;99.90;;;;;;5114489;28;20416;-65
2022/08/26 09:19:32;;;;;;;9.57;2.20;;;20.90;99.90;;;;;;5115173;28;20051;-66
2022/08/26 09:21:59;;;;;;;7.35;1.92;;;20.90;99.90;;;;;;5127129;27;20097;-65
2022/08/26 09:24:28;;;;;;;6.97;1.48;;;20.80;99.90;;;;;;5116216;28;20088;-67
2022/08/26 09:26:57;;;;;;;9.10;1.80;;;20.80;99.90;;;;;;5119202;28;20062;-64
2022/08/26 09:29:25;;;;;;;7.72;1.30;;;20.80;99.90;;;;;;5107997;28;20050;-64
2022/08/26 09:32:11;;;;;;;6.97;1.75;;;20.90;99.90;;;;;;5121382;28;20039;-66
2022/08/26 09:34:57;;;;;;;6.60;1.38;;;20.80;99.90;;;;;;5130424;28;20039;-67
2022/08/26 09:37:46;;;;;;;8.88;1.90;;;20.80;99.90;;;;;;5121317;28;20051;-66
2022/08/26 09:40:30;;;;;;;7.38;1.55;;;20.80;99.90;;;;;;5118014;28;20040;-64
2022/08/26 09:43:09;;;;;;;9.60;1.55;;;20.90;99.90;;;;;;5120266;28;20397;-64
2022/08/26 09:45:36;;;;;;;6.82;1.70;;;20.90;99.90;;;;;;5119892;28;20494;-65
2022/08/26 09:48:02;;;;;;;7.30;1.70;;;20.90;99.90;;;;;;5119413;28;20490;-67
2022/08/26 09:50:34;;;;;;;9.95;1.65;;;21.00;99.90;;;;;;5116349;28;20103;-66
2022/08/26 09:53:10;;;;;;;12.40;1.88;;;21.00;99.90;;;;;;5117182;28;20054;-65
2022/08/26 09:55:38;;;;;;;6.65;1.38;;;21.00;99.90;;;;;;5112566;28;20040;-67
2022/08/26 09:58:04;;;;;;;6.70;1.40;;;21.00;99.90;;;;;;5111761;28;20031;-66
2022/08/26 10:01:05;;;;;;;7.78;1.80;;;21.10;99.90;;;;;;5106595;28;20118;-66
2022/08/26 10:03:34;;;;;;;7.40;1.30;;;21.20;99.90;;;;;;5028412;28;20052;-66
2022/08/26 10:06:11;;;;;;;13.52;1.50;;;21.30;99.90;;;;;;5024335;28;20060;-66
2022/08/26 10:08:45;;;;;;;10.18;1.55;;;21.40;99.90;;;;;;5047401;28;20088;-66
2022/08/26 10:11:21;;;;;;;8.25;1.40;;;21.30;99.90;;;;;;5030556;28;20040;-65
2022/08/26 10:13:51;;;;;;;10.25;1.60;;;21.30;99.90;;;;;;5050624;28;20447;-65
2022/08/26 10:16:21;;;;;;;9.25;1.88;;;21.30;99.90;;;;;;5016821;28;20052;-65
2022/08/26 10:19:19;;;;;;;9.43;1.60;;;21.20;99.90;;;;;;5033328;28;20079;-66
2022/08/26 10:22:00;;;;;;;6.97;1.20;;;21.10;99.90;;;;;;5034915;28;20120;-67
2022/08/26 10:24:40;;;;;;;8.13;1.60;;;21.00;99.90;;;;;;5034850;28;20588;-68
2022/08/26 10:27:43;;;;;;;8.40;1.58;;;20.90;99.90;;;;;;5032919;28;20053;-65
2022/08/26 10:30:13;;;;;;;10.95;1.60;;;20.80;99.90;;;;;;5031643;28;20128;-68
2022/08/26 10:32:40;;;;;;;8.23;1.33;;;20.70;99.90;;;;;;5031255;28;20183;-65
2022/08/26 10:35:11;;;;;;;9.05;2.05;;;20.70;99.90;;;;;;5047689;28;20120;-65
2022/08/26 10:37:45;;;;;;;7.73;1.70;;;20.60;99.90;;;;;;5033818;28;20076;-65
2022/08/26 10:40:22;;;;;;;8.73;1.50;;;20.50;99.90;;;;;;5125570;27;20285;-65
2022/08/26 10:43:02;;;;;;;9.43;1.80;;;20.50;99.90;;;;;;5117825;27;20432;-66
2022/08/26 10:45:37;;;;;;;8.32;1.83;;;20.50;99.90;;;;;;5120954;27;20038;-67
2022/08/26 10:48:11;;;;;;;9.90;1.50;;;20.50;99.90;;;;;;5125057;27;20042;-67
2022/08/26 10:50:42;;;;;;;9.43;1.45;;;20.40;99.90;;;;;;5088713;28;20051;-65
2022/08/26 10:53:19;;;;;;;7.50;1.47;;;20.40;99.90;;;;;;5117493;27;20093;-64
2022/08/26 10:55:57;;;;;;;7.95;1.60;;;20.50;99.90;;;;;;5119247;27;20040;-64
2022/08/26 10:58:58;;;;;;;4.85;1.20;;;20.60;99.90;;;;;;5129901;27;20043;-64
2022/08/26 11:01:45;;;;;;;10.55;2.38;;;20.70;99.90;;;;;;5111060;28;20093;-65
2022/08/26 11:04:29;;;;;;;7.88;1.20;;;20.80;99.90;;;;;;5124896;27;20039;-68
2022/08/26 11:07:40;;;;;;;6.53;1.30;;;20.80;99.90;;;;;;5115358;27;20044;-64
2022/08/26 11:10:11;;;;;;;8.70;1.30;;;20.90;99.90;;;;;;5110623;27;20096;-67
2022/08/26 11:12:36;;;;;;;10.77;1.45;;;20.90;99.90;;;;;;5120321;27;20424;-66
2022/08/26 11:15:08;;;;;;;10.32;1.27;;;20.80;99.90;;;;;;5111746;28;20052;-65
2022/08/26 11:17:43;;;;;;;4.60;1.13;;;20.70;99.90;;;;;;5111643;27;20047;-67
2022/08/26 11:20:21;;;;;;;8.07;1.33;;;20.70;99.90;;;;;;5109373;28;20046;-64
2022/08/26 11:22:47;;;;;;;10.70;1.13;;;20.60;99.90;;;;;;5105408;27;20413;-67
2022/08/26 11:25:17;;;;;;;8.90;1.27;;;20.50;99.90;;;;;;5112213;27;20043;-64
2022/08/26 11:27:55;;;;;;;4.78;1.40;;;20.40;99.90;;;;;;5102298;27;20382;-65
2022/08/26 11:30:21;;;;;;;8.13;1.33;;;20.40;99.90;;;;;;5118921;27;20042;-66
2022/08/26 11:32:56;;;;;;;9.73;1.30;;;20.40;99.90;;;;;;5114282;27;20051;-67
2022/08/26 11:35:23;;;;;;;4.47;1.00;;;20.40;99.90;;;;;;5123728;27;20401;-66
2022/08/26 11:38:17;;;;;;;3.08;1.50;;;20.30;99.90;;;;;;5121169;27;20059;-65
2022/08/26 11:40:43;;;;;;;5.63;1.25;;;20.30;99.90;;;;;;5113927;27;20578;-67
2022/08/26 11:43:22;;;;;;;3.40;1.02;;;20.30;99.90;;;;;;5123659;27;20062;-66
2022/08/26 11:46:01;;;;;;;5.30;1.20;;;20.30;99.90;;;;;;5114389;27;20499;-64
2022/08/26 11:48:32;;;;;;;6.95;1.00;;;20.30;99.90;;;;;;5102743;27;20059;-65
2022/08/26 11:50:59;;;;;;;4.90;1.02;;;20.30;99.90;;;;;;5113248;27;20457;-65
2022/08/26 11:53:26;;;;;;;6.05;0.90;;;20.40;99.90;;;;;;5112930;27;20047;-65
2022/08/26 11:55:54;;;;;;;6.75;0.90;;;20.50;99.90;;;;;;5123387;27;20129;-65
2022/08/26 11:58:22;;;;;;;6.68;1.02;;;20.60;99.90;;;;;;5113562;27;20093;-66
2022/08/26 12:00:49;;;;;;;7.07;1.10;;;20.80;99.90;;;;;;5109544;28;20071;-65
2022/08/26 12:03:20;;;;;;;5.15;1.20;;;21.00;99.90;;;;;;5123992;27;20042;-64
2022/08/26 12:05:48;;;;;;;7.40;0.93;;;21.20;99.90;;;;;;5108169;27;20036;-65
2022/08/26 12:08:22;;;;;;;5.63;1.08;;;21.30;99.90;;;;;;5107685;27;20044;-67
2022/08/26 12:10:48;;;;;;;6.88;1.00;;;21.30;99.90;;;;;;5106832;27;20115;-64
2022/08/26 12:13:21;;;;;;;7.30;1.25;;;21.30;99.90;;;;;;5101736;28;20043;-66
2022/08/26 12:15:55;;;;;;;8.10;1.10;;;21.10;99.90;;;;;;5115412;27;20427;-66
2022/08/26 12:18:24;;;;;;;6.78;1.00;;;20.90;99.90;;;;;;5092442;28;20554;-67
2022/08/26 12:20:53;;;;;;;5.57;1.23;;;20.70;99.90;;;;;;5110664;27;20055;-66
2022/08/26 12:23:33;;;;;;;5.85;0.82;;;20.60;99.90;;;;;;5116754;27;20771;-67
2022/08/26 12:26:21;;;;;;;5.70;1.20;;;20.50;99.90;;;;;;5114174;27;20047;-65
2022/08/26 12:28:53;;;;;;;6.07;1.27;;;20.50;99.90;;;;;;5098009;28;20044;-68
2022/08/26 12:31:27;;;;;;;4.07;1.13;;;20.50;99.90;;;;;;5100729;28;20051;-64
2022/08/26 12:33:55;;;;;;;7.53;1.50;;;20.60;99.90;;;;;;5091785;28;20397;-67
2022/08/26 12:36:26;;;;;;;7.25;1.40;;;20.70;99.90;;;;;;5106939;27;20181;-66
2022/08/26 12:38:53;;;;;;;9.18;1.38;;;20.80;99.90;;;;;;5123988;27;20092;-65
2022/08/26 12:41:40;;;;;;;7.00;1.20;;;20.90;99.90;;;;;;5102653;28;20054;-66
2022/08/26 12:44:06;;;;;;;8.05;1.38;;;21.00;99.90;;;;;;5104710;28;20505;-66
2022/08/26 12:46:32;;;;;;;7.28;1.23;;;21.20;99.90;;;;;;5108764;27;20109;-65
2022/08/26 12:49:00;;;;;;;5.28;1.08;;;21.30;99.90;;;;;;5105785;28;20358;-66
2022/08/26 12:51:29;;;;;;;4.65;0.95;;;21.30;99.90;;;;;;5121924;27;20043;-67
2022/08/26 12:53:56;;;;;;;3.00;0.88;;;21.30;99.90;;;;;;5114593;28;20054;-66
2022/08/26 12:56:31;;;;;;;7.40;1.25;;;21.30;99.90;;;;;;5093694;28;20054;-65